^^
Datos históricos de la estación: Murcia-Puente Tocinos
Diario Informe para Noviembre 4, 2019 Unidades:  Ingés    Métrico   Ambas
Diario Semanal Mensual Anual
  Máxima: Mínima: Promedio:
Temperatura: 80.6 °F 60.6 °F 70.2 °F
Punto de rocio: 55 °F 45.7 °F 49.1 °F
Humedad: 65% 33.7% 48%
Velocidad viento: 11.2mph 0mph 4.8mph
Racha viento: 22mph - -
Viento- - SO
Presión: 29.9 in 29.7 in -
Precipitación: 0 in    
 
 
Tabla de datos para Noviembre 4, 2019
Hora Temperatura Punto de rocio Presión Viento Velocidad viento Racha viento Humedad Intensidad lluvia(por hora) Nubes
00:04 67.6 °F 48.9 °F 29.9 in SO 3.8 mph 6.9 mph 51% 0 in
00:09 67.6 °F 48.7 °F 29.9 in Sur 4 mph 7 mph 51% 0 in
00:14 67.5 °F 48.7 °F 29.9 in SSO 3.3 mph 5 mph 51% 0 in
00:19 67.3 °F 48.6 °F 29.9 in SO 3.1 mph 4.6 mph 51% 0 in
00:24 67.3 °F 48.4 °F 29.9 in OSO 2.5 mph 5 mph 51% 0 in
00:29 66.9 °F 48.4 °F 29.9 in SSO 2.4 mph 4.6 mph 51.4% 0 in
00:34 66.7 °F 48.7 °F 29.9 in Sur 2.1 mph 5.4 mph 52.6% 0 in
00:39 66.4 °F 48.7 °F 29.9 in Sur 2 mph 6 mph 53% 0 in
00:44 66.2 °F 48.6 °F 29.9 in Sur 2.7 mph 5 mph 53% 0 in
00:49 66 °F 48.4 °F 29.9 in Sur 2.9 mph 5 mph 53% 0 in
00:54 66 °F 48.4 °F 29.9 in SSE 3.4 mph 6.2 mph 53% 0 in
00:59 66 °F 48.4 °F 29.9 in SSE 3.6 mph 6 mph 53% 0 in
01:04 66 °F 48.4 °F 29.9 in SSO 3.6 mph 5 mph 53% 0 in
01:09 65.8 °F 48.2 °F 29.9 in OSO 3.6 mph 5 mph 53% 0 in
01:14 65.8 °F 48.2 °F 29.9 in SSO 2.4 mph 5.2 mph 53% 0 in
01:19 65.8 °F 48.2 °F 29.9 in Sur 2 mph 5.9 mph 52.9% 0 in
01:24 65.8 °F 47.8 °F 29.9 in SSE 3.2 mph 6 mph 52.1% 0 in
01:29 66 °F 47.3 °F 29.9 in SSO 3.6 mph 6.9 mph 50.9% 0 in
01:34 66.4 °F 46.9 °F 29.9 in SO 3.9 mph 9.2 mph 49.4% 0 in
01:39 66.7 °F 46.6 °F 29.9 in SO 4 mph 9 mph 48.4% 0 in
01:44 66.9 °F 46.6 °F 29.9 in SSO 4.2 mph 8.5 mph 48% 0 in
01:49 66.7 °F 46.9 °F 29.9 in SSE 4.3 mph 9 mph 48.8% 0 in
01:54 66.4 °F 46.8 °F 29.9 in SSE 4.3 mph 10 mph 49.3% 0 in
01:59 66 °F 46.8 °F 29.9 in SSE 4.3 mph 10.4 mph 49.7% 0 in
02:04 65.8 °F 46.8 °F 29.9 in Sur 6 mph 10 mph 50% 0 in
02:09 65.7 °F 46.4 °F 29.9 in Sur 6.4 mph 9 mph 49.9% 0 in
02:14 65.8 °F 46.2 °F 29.9 in SSO 5.5 mph 8.5 mph 49% 0 in
02:19 66 °F 46.4 °F 29.9 in Sur 5.2 mph 9 mph 48.9% 0 in
02:24 66.2 °F 46 °F 29.9 in Sur 4.3 mph 6 mph 48.3% 0 in
02:29 66.2 °F 46 °F 29.9 in SSE 4 mph 5 mph 48.2% 0 in
02:34 66.2 °F 46.4 °F 29.9 in SSE 2.3 mph 5 mph 48.9% 0 in
02:39 66 °F 46 °F 29.9 in SSE 1.8 mph   48.5% 0 in
02:44 66 °F 46.2 °F 29.9 in Sur 0.4 mph 1.8 mph 48.8% 0 in
02:49 66 °F 45.9 °F 29.9 in Calm   2.3 mph 48.2% 0 in
02:54 66 °F 46.2 °F 29.9 in Calm   2 mph 48.8% 0 in
02:59 65.8 °F 46.2 °F 29.9 in Calm     49.2% 0 in
03:04 65.8 °F 46.6 °F 29.9 in Calm     49.9% 0 in
03:09 65.7 °F 46.4 °F 29.9 in Calm     49.8% 0 in
03:14 65.5 °F 46.8 °F 29.9 in Calm     50.8% 0 in
03:19 65.1 °F 46.9 °F 29.9 in Calm     51.5% 0 in
03:24 64.9 °F 46.6 °F 29.9 in Calm     51.4% 0 in
03:29 64.8 °F 46.8 °F 29.9 in Calm   3.5 mph 52.1% 0 in
03:34 64.6 °F 47.1 °F 29.9 in Calm   3.1 mph 52.9% 0 in
03:39 64.4 °F 46.9 °F 29.9 in Calm   4.6 mph 53.2% 0 in
03:44 64.2 °F 46.9 °F 29.9 in SE 1.6 mph 5 mph 53.3% 0 in
03:49 64.2 °F 46.8 °F 29.9 in SE 2 mph 5 mph 53% 0 in
03:54 64.2 °F 46.9 °F 29.9 in ESE 2.7 mph 5 mph 53.4% 0 in
03:59 64 °F 47.1 °F 29.8 in SE 2.9 mph 5.8 mph 54% 0 in
04:04 63.9 °F 46.8 °F 29.8 in SSE 2.9 mph 6 mph 54% 0 in
04:09 63.7 °F 46.8 °F 29.8 in Sur 2.9 mph 6 mph 54% 0 in
04:14 63.7 °F 46.8 °F 29.8 in Oeste 2.9 mph 4.3 mph 54% 0 in
04:19 63.9 °F 46.9 °F 29.8 in ONO 2.9 mph 5.8 mph 54% 0 in
04:24 63.9 °F 46.9 °F 29.8 in SSO 2.9 mph 6 mph 54% 0 in
04:29 64 °F 47.1 °F 29.8 in SSE 2.9 mph 6.9 mph 54% 0 in
04:34 64 °F 47.1 °F 29.8 in SSE 4 mph 7 mph 53.9% 0 in
04:39 64.6 °F 47.1 °F 29.8 in Sur 4.3 mph 7 mph 53% 0 in
04:44 64.8 °F 47.1 °F 29.8 in SSE 4.1 mph 7 mph 53% 0 in
04:49 64.6 °F 47.1 °F 29.8 in Sur 4 mph 7 mph 53.1% 0 in
04:54 64.6 °F 47.3 °F 29.8 in Sur 4.2 mph 9.2 mph 53.5% 0 in
04:59 64.8 °F 47.1 °F 29.8 in SSE 4.3 mph 9 mph 52.7% 0 in
05:04 65.1 °F 47.1 °F 29.8 in ESE 5 mph 7 mph 52% 0 in
05:09 65.1 °F 47.1 °F 29.8 in ESE 5.2 mph 6.9 mph 52.3% 0 in
05:14 64.8 °F 47.3 °F 29.8 in SO 3.9 mph 7 mph 53% 0 in
05:19 64.6 °F 47.5 °F 29.8 in Sur 3.6 mph 5.8 mph 53.6% 0 in
05:24 64.6 °F 47.5 °F 29.8 in SE 2.7 mph 6 mph 54% 0 in
05:29 64.6 °F 47.5 °F 29.8 in SSE 2.4 mph 5.8 mph 54% 0 in
05:34 64.4 °F 47.5 °F 29.8 in Sur 2.9 mph 6 mph 54% 0 in
05:39 64.2 °F 47.7 °F 29.8 in ONO 3.1 mph 6 mph 55% 0 in
05:44 63.9 °F 47.5 °F 29.8 in NNO 2.5 mph 5 mph 55.2% 0 in
05:49 63.5 °F 47.5 °F 29.8 in ONO 2.4 mph 4.6 mph 56% 0 in
05:54 63.3 °F 47.3 °F 29.8 in OSO 2.4 mph 5 mph 56% 0 in
05:59 63.1 °F 47.3 °F 29.8 in Oeste 2.4 mph 4.6 mph 56.3% 0 in
06:04 63.1 °F 47.5 °F 29.8 in Oeste 2.4 mph 5 mph 56.6% 0 in
06:09 63.1 °F 47.7 °F 29.8 in Oeste 2.4 mph 3.6 mph 56.9% 0 in
06:14 63.1 °F 47.7 °F 29.8 in OSO 1.9 mph 4.6 mph 57% 0 in
06:19 63 °F 47.7 °F 29.8 in Oeste 1.8 mph 5 mph 57.7% 0 in
06:24 62.4 °F 47.7 °F 29.8 in OSO 2.2 mph 5 mph 58.6% 0 in
06:29 62.2 °F 47.7 °F 29.8 in SSO 2.4 mph 5 mph 59% 0 in
06:34 62.2 °F 47.7 °F 29.8 in SSO 2.4 mph 5 mph 59% 0 in
06:39 62.2 °F 48.2 °F 29.8 in Sur 2.4 mph 8.7 mph 60.1% 0 in
06:44 61.7 °F 48.2 °F 29.8 in Sur 2.4 mph 9.7 mph 61.3% 0 in
06:49 60.8 °F 48 °F 29.8 in SSO 2.4 mph 10 mph 62.8% 0 in
06:54 60.8 °F 48 °F 29.8 in SSO 4.8 mph 9 mph 63% 0 in
06:59 61.2 °F 48.4 °F 29.8 in SO 5.4 mph 7 mph 62.9% 0 in
07:04 61.3 °F 48.4 °F 29.8 in SO 3.9 mph 7 mph 62% 0 in
07:09 61.5 °F 48.4 °F 29.8 in Oeste 3.6 mph 5 mph 62% 0 in
07:14 61.7 °F 48.6 °F 29.8 in SSO 2.4 mph 5.8 mph 62% 0 in
07:19 61.5 °F 48.6 °F 29.8 in SE 2 mph 6 mph 62.3% 0 in
07:24 61.2 °F 48.7 °F 29.8 in SSE 2.9 mph 7.6 mph 63.6% 0 in
07:29 61 °F 48.7 °F 29.8 in SE 3.1 mph 8.1 mph 64% 0 in
07:34 61 °F 48.7 °F 29.8 in SSE 4 mph 7 mph 64% 0 in
07:39 61.2 °F 48.9 °F 29.8 in SE 4.3 mph 5.2 mph 64% 0 in
07:44 61.2 °F 48.7 °F 29.8 in SE 3.7 mph 5.8 mph 64% 0 in
07:49 60.8 °F 48.7 °F 29.8 in SSE 3.6 mph 8.1 mph 64.7% 0 in
07:54 60.6 °F 48.7 °F 29.8 in SO 4.2 mph 8 mph 65% 0 in
07:59 61.2 °F 49.1 °F 29.8 in SO 4.3 mph 5 mph 64.8% 0 in
08:04 61.5 °F 49.1 °F 29.8 in OSO 3.3 mph 5.2 mph 63.7% 0 in
08:09 62.2 °F 49.3 °F 29.8 in SO 3.1 mph 5.2 mph 62.2% 0 in
08:14 63.1 °F 49.5 °F 29.8 in OSO 3.1 mph 5.2 mph 61.1% 0 in
08:19 63.3 °F 49.6 °F 29.8 in OSO 3.1 mph 5 mph 61% 0 in
08:24 63.5 °F 49.8 °F 29.8 in SO 3.1 mph 5 mph 60.8% 0 in
08:29 63.7 °F 50 °F 29.8 in OSO 3.1 mph 5 mph 60.8% 0 in
08:34 64 °F 49.8 °F 29.8 in OSO 2.5 mph 4 mph 60% 0 in
08:39 64.6 °F 50.4 °F 29.9 in SE 2.4 mph 4.7 mph 60% 0 in
08:44 64.9 °F 50.5 °F 29.9 in SE 2.4 mph 7.4 mph 60% 0 in
08:49 64.4 °F 50.5 °F 29.9 in SE 2.4 mph 7 mph 60.7% 0 in
08:54 64 °F 50.4 °F 29.9 in SSE 3.9 mph 7 mph 61% 0 in
08:59 64.4 °F 50.7 °F 29.9 in SSE 4.3 mph 5.9 mph 61% 0 in
09:04 64.6 °F 50.7 °F 29.9 in Sur 3.7 mph 6 mph 61% 0 in
09:09 64.8 °F 51.1 °F 29.9 in Sur 3.6 mph 6 mph 61% 0 in
09:14 65.1 °F 51.3 °F 29.9 in Sur 3.6 mph 6.2 mph 60.9% 0 in
09:19 65.7 °F 51.6 °F 29.9 in Sur 3.6 mph 6 mph 60.5% 0 in
09:24 66 °F 51.8 °F 29.9 in SO 3.9 mph 6 mph 60% 0 in
09:29 66.6 °F 52.2 °F 29.9 in OSO 4 mph 6.2 mph 59.5% 0 in
09:34 67.3 °F 52.5 °F 29.9 in Oeste 3.3 mph 6.9 mph 59% 0 in
09:39 68.2 °F 53.1 °F 29.9 in Oeste 3.1 mph 9.2 mph 58.5% 0 in
09:44 68.7 °F 53.1 °F 29.9 in Oeste 4.3 mph 9.2 mph 57.4% 0 in
09:49 69.1 °F 53.2 °F 29.9 in Oeste 4.7 mph 10.4 mph 57% 0 in
09:54 69.4 °F 53.4 °F 29.9 in OSO 5.9 mph 10 mph 57% 0 in
09:59 69.8 °F 53.8 °F 29.9 in SO 6.2 mph 9 mph 57% 0 in
10:04 70.2 °F 54.1 °F 29.9 in OSO 4.7 mph 8.1 mph 57% 0 in
10:09 70.3 °F 54.3 °F 29.9 in SSO 4.3 mph 8 mph 56.5% 0 in
10:14 71.1 °F 54.3 °F 29.9 in SSO 3.4 mph 6 mph 55.6% 0 in
10:19 71.2 °F 54.1 °F 29.9 in SO 3.1 mph 6 mph 54.9% 0 in
10:24 71.4 °F 54.1 °F 29.9 in Oeste 3.1 mph 6 mph 54.4% 0 in
10:29 72 °F 54.1 °F 29.9 in SO 3.1 mph 6.9 mph 53.7% 0 in
10:34 72.1 °F 54.3 °F 29.9 in SSE 3.1 mph 7 mph 53.7% 0 in
10:39 72.5 °F 54.5 °F 29.9 in SSE 3.1 mph 8.1 mph 53% 0 in
10:44 72.1 °F 54.5 °F 29.9 in SE 3.8 mph 8.1 mph 53.7% 0 in
10:49 72 °F 54.5 °F 29.9 in SSE 4 mph 8.5 mph 54% 0 in
10:54 72 °F 54.5 °F 29.9 in SSE 5 mph 9 mph 54% 0 in
10:59 72.1 °F 54.5 °F 29.9 in Sur 5.2 mph 7 mph 54% 0 in
11:04 72.5 °F 54.5 °F 29.9 in SE 3.5 mph 5 mph 53.3% 0 in
11:09 73 °F 54.7 °F 29.9 in SSE 3.1 mph 8.1 mph 52.6% 0 in
11:14 73.4 °F 54.5 °F 29.8 in SSE 3.8 mph 8 mph 51.8% 0 in
11:19 73.9 °F 54.5 °F 29.8 in SE 4 mph 6 mph 51% 0 in
11:24 74.5 °F 54.7 °F 29.8 in SE 3.2 mph 6.2 mph 50.3% 0 in
11:29 74.8 °F 55 °F 29.8 in SSE 2.9 mph 6.9 mph 50% 0 in
11:34 75 °F 54.7 °F 29.8 in SO 2.9 mph 8.1 mph 49.1% 0 in
11:39 75 °F 54.7 °F 29.8 in SSO 2.9 mph 8 mph 49.2% 0 in
11:44 75 °F 54.7 °F 29.8 in Sur 3.8 mph 9.2 mph 49% 0 in
11:49 75.4 °F 55 °F 29.8 in Sur 4 mph 9.2 mph 49% 0 in
11:54 75.7 °F 54.9 °F 29.8 in Sur 3.7 mph 7.6 mph 48.3% 0 in
11:59 75.7 °F 54.5 °F 29.8 in SSE 3.6 mph 10.4 mph 47.6% 0 in
12:04 75.7 °F 54.7 °F 29.8 in Sur 5.5 mph 10 mph 47.9% 0 in
12:09 75.6 °F 54 °F 29.8 in OSO 5.9 mph 7 mph 47.1% 0 in
12:14 75.7 °F 54.3 °F 29.8 in Oeste 4.1 mph 6 mph 47.6% 0 in
12:19 76.1 °F 54.3 °F 29.8 in SSO 3.6 mph 6 mph 46.9% 0 in
12:24 76.5 °F 54.5 °F 29.8 in SSO 2.7 mph 6.2 mph 46.5% 0 in
12:29 76.8 °F 54 °F 29.8 in SSO 2.4 mph 6 mph 45.3% 0 in
12:34 76.6 °F 53.8 °F 29.8 in OSO 3.4 mph 6.9 mph 44.9% 0 in
12:39 76.5 °F 53.1 °F 29.8 in SO 3.6 mph 8.1 mph 44% 0 in
12:44 76.6 °F 53.2 °F 29.8 in SSO 3.6 mph 8 mph 44.4% 0 in
12:49 76.8 °F 53.2 °F 29.8 in Oeste 3.6 mph 8.5 mph 43.8% 0 in
12:54 77.2 °F 52.5 °F 29.8 in Oeste 3.9 mph 9 mph 42.3% 0 in
12:59 77.4 °F 52.3 °F 29.8 in Oeste 4 mph 10.4 mph 42% 0 in
13:04 77.5 °F 52.2 °F 29.8 in OSO 4.3 mph 10 mph 41.4% 0 in
13:09 77.5 °F 52 °F 29.8 in ONO 4.3 mph 10.7 mph 40.9% 0 in
13:14 77.5 °F 52 °F 29.8 in SO 5.2 mph 11 mph 40.9% 0 in
13:19 77.9 °F 51.6 °F 29.8 in SSO 5.4 mph 10.4 mph 40% 0 in
13:24 78.1 °F 51.4 °F 29.8 in OSO 5.8 mph 12.3 mph 39.6% 0 in
13:29 78.1 °F 51.3 °F 29.8 in SO 5.9 mph 13 mph 39.1% 0 in
13:34 78.1 °F 51.6 °F 29.8 in Oeste 5.9 mph 13 mph 39.7% 0 in
13:39 78.1 °F 51.6 °F 29.8 in Oeste 5.9 mph 13 mph 39.7% 0 in
13:44 78.1 °F 51.3 °F 29.8 in SO 6.2 mph 12 mph 39.1% 0 in
13:49 77.7 °F 50.9 °F 29.8 in OSO 6.2 mph 13 mph 39.1% 0 in
13:54 78.1 °F 50.7 °F 29.8 in SO 6.2 mph 13 mph 38.6% 0 in
13:59 78.3 °F 50.5 °F 29.8 in Oeste 6.2 mph 11 mph 38% 0 in
14:04 78.4 °F 50.5 °F 29.8 in SO 6.2 mph 10 mph 37.6% 0 in
14:09 78.6 °F 50.4 °F 29.8 in SO 6.2 mph 12.3 mph 37.2% 0 in
14:14 78.8 °F 50.7 °F 29.8 in Oeste 5.4 mph 13 mph 37.6% 0 in
14:19 78.4 °F 50.4 °F 29.8 in Oeste 5.2 mph 13 mph 37.4% 0 in
14:24 78.4 °F 50.5 °F 29.8 in Oeste 5.3 mph 12 mph 37.8% 0 in
14:29 78.6 °F 50.7 °F 29.7 in Oeste 5.4 mph 10.4 mph 37.8% 0 in
14:34 79.2 °F 50.5 °F 29.7 in Oeste 4.5 mph 11.5 mph 37.1% 0 in
14:39 79 °F 50.5 °F 29.7 in ONO 4.3 mph 12 mph 37.1% 0 in
14:44 78.6 °F 50.2 °F 29.7 in ONO 5.6 mph 12 mph 37% 0 in
14:49 78.8 °F 50.4 °F 29.7 in ONO 5.9 mph 10.7 mph 37% 0 in
14:54 79.2 °F 50.7 °F 29.7 in ONO 5.3 mph 11 mph 37.2% 0 in
14:59 79.2 °F 50.4 °F 29.7 in ONO 5.2 mph 15 mph 36.5% 0 in
15:04 79.3 °F 50 °F 29.7 in OSO 6.2 mph 15 mph 35.9% 0 in
15:09 79.5 °F 49.5 °F 29.7 in OSO 6.4 mph 15.6 mph 35% 0 in
15:14 79.7 °F 49.6 °F 29.7 in OSO 7.3 mph 16 mph 35% 0 in
15:19 79.9 °F 49.8 °F 29.7 in SO 7.6 mph 8 mph 35% 0 in
15:24 80.1 °F 49.8 °F 29.7 in Oeste 4.5 mph 11.5 mph 35% 0 in
15:29 80.2 °F 49.8 °F 29.7 in Oeste 3.6 mph 12 mph 34.8% 0 in
15:34 80.2 °F 49.5 °F 29.7 in ONO 5.8 mph 14 mph 34% 0 in
15:39 80.2 °F 49.3 °F 29.7 in OSO 6.4 mph 14 mph 34% 0 in
15:44 80.4 °F 49.3 °F 29.7 in SO 7.2 mph 14 mph 33.7% 0 in
15:49 80.6 °F 49.6 °F 29.7 in Oeste 7.4 mph 13 mph 33.9% 0 in
15:54 80.4 °F 51.3 °F 29.7 in ONO 6.2 mph 13.8 mph 36.3% 0 in
15:59 79.7 °F 51.8 °F 29.7 in ONO 5.9 mph 17.3 mph 37.9% 0 in
16:04 79.2 °F 51.8 °F 29.7 in ONO 8.6 mph 17 mph 38.6% 0 in
16:09 78.8 °F 51.6 °F 29.7 in ONO 9.2 mph 15 mph 39% 0 in
16:14 78.6 °F 51.6 °F 29.7 in ONO 8.3 mph 14 mph 39% 0 in
16:19 78.4 °F 51.3 °F 29.7 in ONO 8.1 mph 17 mph 38.7% 0 in
16:24 78.3 °F 50.5 °F 29.7 in ONO 9.4 mph 17.3 mph 38% 0 in
16:29 78.3 °F 50.5 °F 29.7 in ONO 9.7 mph 17.5 mph 38% 0 in
16:34 77.9 °F 50.2 °F 29.7 in NO 10.1 mph 17.3 mph 38% 0 in
16:39 77.7 °F 50.2 °F 29.7 in NO 10.2 mph 16 mph 38% 0 in
16:44 77.7 °F 50 °F 29.7 in NO 8.2 mph 12.3 mph 37.9% 0 in
16:49 77.7 °F 50.2 °F 29.7 in NO 7.6 mph 13 mph 38% 0 in
16:54 77.7 °F 49.6 °F 29.7 in NO 6.5 mph 11.5 mph 37.3% 0 in
16:59 77.5 °F 49.3 °F 29.7 in NO 6.2 mph 12 mph 37% 0 in
17:04 77.5 °F 49.3 °F 29.7 in NO 5.5 mph 10.4 mph 37% 0 in
17:09 77.4 °F 49.6 °F 29.7 in NO 5.4 mph 10.7 mph 37.8% 0 in
17:14 77.2 °F 49.6 °F 29.7 in ONO 6.2 mph 11 mph 38% 0 in
17:19 77.2 °F 49.6 °F 29.7 in ONO 6.4 mph 9.7 mph 38% 0 in
17:24 77 °F 49.5 °F 29.7 in ONO 5.5 mph 11.5 mph 38% 0 in
17:29 76.8 °F 49.8 °F 29.7 in ONO 5.2 mph 12 mph 38.8% 0 in
17:34 76.6 °F 49.8 °F 29.7 in ONO 6 mph 11.8 mph 38.9% 0 in
17:39 76.5 °F 49.6 °F 29.7 in ONO 6.2 mph 12.5 mph 39% 0 in
17:44 76.3 °F 49.5 °F 29.7 in ONO 7.3 mph 13 mph 39% 0 in
17:49 75.9 °F 49.3 °F 29.7 in ONO 7.6 mph 13.8 mph 39% 0 in
17:54 76.1 °F 49.5 °F 29.7 in ONO 7 mph 14 mph 39.2% 0 in
17:59 75.7 °F 49.8 °F 29.7 in ONO 6.9 mph 14 mph 40% 0 in
18:04 75.6 °F 50 °F 29.7 in Oeste 7.5 mph 16.1 mph 40.6% 0 in
18:09 75.6 °F 50.2 °F 29.7 in Oeste 7.6 mph 16 mph 41% 0 in
18:14 75.2 °F 50.4 °F 29.7 in ONO 5.7 mph 12.5 mph 41.7% 0 in
18:19 74.8 °F 50 °F 29.7 in ONO 5.2 mph 15 mph 41.7% 0 in
18:24 74.7 °F 49.5 °F 29.7 in ONO 6.5 mph 17.3 mph 41.2% 0 in
18:29 74.5 °F 49.3 °F 29.7 in Oeste 6.9 mph 17 mph 41% 0 in
18:34 74.1 °F 48.9 °F 29.7 in Oeste 8.3 mph 14.5 mph 40.9% 0 in
18:39 73.9 °F 47.7 °F 29.7 in Oeste 8.7 mph 18.4 mph 39.4% 0 in
18:44 73.8 °F 47.1 °F 29.7 in Oeste 8.6 mph 18.4 mph 38.8% 0 in
18:49 73.6 °F 46.6 °F 29.7 in Oeste 8.5 mph 17 mph 38.3% 0 in
18:54 73.2 °F 46.2 °F 29.7 in ONO 9.7 mph 17.3 mph 38.2% 0 in
18:59 73 °F 46.8 °F 29.7 in Oeste 10 mph 17 mph 39% 0 in
19:04 72.9 °F 46.4 °F 29.7 in Oeste 8.8 mph 21.3 mph 39% 0 in
19:09 72.9 °F 46.4 °F 29.7 in Oeste 8.5 mph 21.9 mph 39% 0 in
19:14 72.9 °F 46.4 °F 29.7 in Oeste 10.6 mph 22 mph 39% 0 in
19:19 72.9 °F 46.4 °F 29.7 in Oeste 11.2 mph 19 mph 39% 0 in
19:24 72.7 °F 46.2 °F 29.8 in Oeste 9.3 mph 16.3 mph 39% 0 in
19:29 72.5 °F 46.4 °F 29.8 in Oeste 8.7 mph 16 mph 39.3% 0 in
19:34 72.1 °F 46.6 °F 29.8 in Oeste 8.5 mph 15 mph 40% 0 in
19:39 72.1 °F 46.4 °F 29.8 in OSO 8.5 mph 14 mph 40% 0 in
19:44 72 °F 46.9 °F 29.8 in OSO 7.6 mph 14 mph 40.9% 0 in
19:49 72 °F 46.9 °F 29.8 in OSO 7.4 mph 14 mph 41% 0 in
19:54 71.8 °F 46.8 °F 29.8 in OSO 7.6 mph 14 mph 41% 0 in
19:59 71.6 °F 46.6 °F 29.8 in OSO 7.6 mph 13 mph 41% 0 in
20:04 71.4 °F 46.6 °F 29.8 in OSO 7 mph 13 mph 41% 0 in
20:09 71.6 °F 46.6 °F 29.8 in OSO 6.9 mph 13.7 mph 41% 0 in
20:14 71.6 °F 46.8 °F 29.8 in OSO 7.5 mph 14 mph 41.3% 0 in
20:19 71.4 °F 47.1 °F 29.8 in Oeste 7.6 mph 14 mph 42% 0 in
20:24 71.4 °F 47.1 °F 29.8 in Oeste 7.5 mph 13 mph 42% 0 in
20:29 71.2 °F 46.9 °F 29.8 in OSO 7.4 mph 12.5 mph 42% 0 in
20:34 71.2 °F 46.9 °F 29.8 in OSO 6.5 mph 13 mph 42% 0 in
20:39 71.1 °F 46.9 °F 29.8 in OSO 6.2 mph 10.4 mph 42% 0 in
20:44 71.2 °F 46.9 °F 29.8 in OSO 6.2 mph 12.7 mph 42% 0 in
20:49 71.1 °F 46.9 °F 29.8 in OSO 6.2 mph 13 mph 42% 0 in
20:54 71.1 °F 46.8 °F 29.8 in SO 6.2 mph 11 mph 42% 0 in
20:59 70.9 °F 46.6 °F 29.8 in OSO 6.2 mph 9 mph 42% 0 in
21:04 70.7 °F 46.9 °F 29.8 in OSO 5.5 mph 9.2 mph 43% 0 in
21:09 70.3 °F 46.8 °F 29.8 in OSO 5.4 mph 9.2 mph 43% 0 in
21:14 70.2 °F 46.8 °F 29.8 in OSO 5.2 mph 9.2 mph 43% 0 in
21:19 70.2 °F 46.6 °F 29.8 in OSO 5.2 mph 9.2 mph 43% 0 in
21:24 70.2 °F 46.6 °F 29.8 in OSO 5.8 mph 11.5 mph 43% 0 in
21:29 70.2 °F 46.6 °F 29.8 in OSO 5.9 mph 14 mph 42.8% 0 in
21:34 70.5 °F 46 °F 29.8 in OSO 7.1 mph 17.3 mph 41.4% 0 in
21:39 71.1 °F 46 °F 29.8 in OSO 7.4 mph 17 mph 41% 0 in
21:44 71.1 °F 46.2 °F 29.8 in OSO 8.8 mph 15 mph 41% 0 in
21:49 70.9 °F 45.9 °F 29.8 in OSO 9.2 mph 14 mph 41% 0 in
21:54 70.5 °F 45.7 °F 29.8 in OSO 7.4 mph 12 mph 41% 0 in
21:59 70.3 °F 46.2 °F 29.8 in OSO 6.9 mph 12 mph 42% 0 in
22:04 70.3 °F 46.2 °F 29.8 in OSO 6.1 mph 12 mph 42% 0 in
22:09 70.2 °F 46 °F 29.8 in SO 5.9 mph 13 mph 42% 0 in
22:14 70.2 °F 46 °F 29.8 in SO 6.7 mph 13 mph 42% 0 in
22:19 70.2 °F 46 °F 29.8 in SO 6.9 mph 9.2 mph 42% 0 in
22:24 70 °F 45.9 °F 29.8 in SSO 5.7 mph 8 mph 42% 0 in
22:29 69.6 °F 46.2 °F 29.8 in SSE 5.4 mph 9.2 mph 43.3% 0 in
22:34 68.7 °F 46.6 °F 29.8 in SSE 5.2 mph 9 mph 45.2% 0 in
22:39 68.2 °F 46.6 °F 29.8 in SSE 5.2 mph 9.2 mph 46.2% 0 in
22:44 67.8 °F 46.4 °F 29.8 in SSE 5.8 mph 9.2 mph 46.2% 0 in
22:49 68.2 °F 46.2 °F 29.8 in Sur 5.9 mph 9.2 mph 45.5% 0 in
22:54 68.4 °F 46.2 °F 29.8 in Sur 5 mph 9 mph 45% 0 in
22:59 68.4 °F 46.2 °F 29.8 in Sur 4.7 mph 10.4 mph 45% 0 in
23:04 68.2 °F 46.4 °F 29.8 in Sur 5.3 mph 10 mph 45.8% 0 in
23:09 67.8 °F 46.4 °F 29.8 in SSO 5.4 mph 9.2 mph 46.3% 0 in
23:14 67.6 °F 46.8 °F 29.8 in SSO 4.8 mph 7 mph 47% 0 in
23:19 67.6 °F 46.8 °F 29.8 in SSO 4.7 mph 6.9 mph 47% 0 in
23:24 67.6 °F 46.6 °F 29.8 in SSO 4.4 mph 8.5 mph 47% 0 in
23:29 67.6 °F 46.9 °F 29.7 in SSO 4.3 mph 10.4 mph 47.6% 0 in
23:34 67.6 °F 47.1 °F 29.7 in SSO 5.2 mph 10 mph 47.9% 0 in
23:39 67.6 °F 46.8 °F 29.7 in SSO 5.4 mph 11.8 mph 47% 0 in
23:44 68 °F 46.8 °F 29.7 in SSO 6.6 mph 12 mph 46.6% 0 in
23:49 68.2 °F 46.6 °F 29.7 in SSO 6.9 mph 12 mph 46% 0 in
23:54 68.4 °F 46.6 °F 29.7 in SSO 7.3 mph 12 mph 45.5% 0 in
23:59 68.4 °F 46.2 °F 29.7 in SSO 7.4 mph 17.5 mph 45% 0 in
Murcia-Puente Tocinos, España
Compliments of Weather Underground - 2.75 mb

La estación de MeteoMurcia.com, publica sus datos en los siguientes proyectos:

Weather Underground PWS IMURCIAP2 Meteoclimatic www.awekas.at

W3Counter
Web Analytics